Time;durP1;ratioP1;P1;durP2;ratioP2;P2;SDS_P1;SDS_P2;PMS_P1;PMS_P2;Temp;Humidity;BMP_temperature;BMP_pressure;BME280_temperature;BME280_humidity;BME280_pressure;Samples;Min_cycle;Max_cycle;Signal;HPM_P1;HPM_P2
2023/09/19 00:03:22;;;;;;;12.50;11.40;;;;;;;17.29;74.65;98742.00;435611;1251;139748;-61
2023/09/19 00:13:28;;;;;;;12.80;11.50;;;;;;;17.22;75.05;98739.48;436057;1251;140840;-61
2023/09/19 00:23:34;;;;;;;14.60;13.10;;;;;;;17.25;75.44;98737.22;436271;1251;139582;-61
2023/09/19 00:33:40;;;;;;;13.10;11.70;;;;;;;17.38;75.68;98732.34;436172;1251;141182;-61
2023/09/19 00:43:47;;;;;;;13.30;12.00;;;;;;;17.48;75.59;98723.63;436384;1256;139818;-62
2023/09/19 00:53:53;;;;;;;14.10;12.70;;;;;;;17.54;75.62;98712.14;436067;1255;139673;-61
2023/09/19 01:04:00;;;;;;;13.30;11.90;;;;;;;17.59;75.62;98707.54;435661;1256;139721;-61
2023/09/19 01:14:21;;;;;;;14.20;12.60;;;;;;;17.69;75.76;98701.44;435574;1251;139725;-60
2023/09/19 01:24:47;;;;;;;13.90;12.40;;;;;;;17.79;75.54;98688.55;435834;1256;139294;-61
2023/09/19 01:34:56;;;;;;;15.70;12.90;;;;;;;17.86;75.39;98684.63;435477;1256;139462;-61
2023/09/19 01:45:10;;;;;;;13.90;12.70;;;;;;;17.91;75.39;98675.19;435997;1251;141583;-60
2023/09/19 01:55:17;;;;;;;14.80;13.20;;;;;;;17.95;75.16;98675.45;436575;1251;139863;-60
2023/09/19 02:05:27;;;;;;;15.20;12.10;;;;;;;17.97;75.09;98680.63;436464;1253;140616;-62
2023/09/19 02:15:34;;;;;;;14.20;12.80;;;;;;;17.96;74.93;98661.66;435753;1256;141553;-61
2023/09/19 02:25:40;;;;;;;14.10;12.70;;;;;;;17.86;74.93;98655.89;435890;1253;139199;-62
2023/09/19 02:35:47;;;;;;;14.30;12.40;;;;;;;17.76;75.10;98648.09;435528;1254;139266;-61
2023/09/19 02:45:54;;;;;;;12.80;11.60;;;;;;;17.64;75.43;98648.79;435274;1251;143470;-61
2023/09/19 02:56:01;;;;;;;12.90;11.70;;;;;;;17.48;76.26;98654.14;435476;1256;139935;-61
2023/09/19 03:06:08;;;;;;;14.40;12.90;;;;;;;17.33;77.06;98648.13;435466;1255;139894;-60
2023/09/19 03:16:15;;;;;;;14.90;12.00;;;;;;;17.16;77.76;98643.06;435619;1251;142163;-61
2023/09/19 03:26:21;;;;;;;16.50;12.40;;;;;;;17.04;78.59;98645.04;436881;1251;139272;-61
2023/09/19 03:36:28;;;;;;;16.80;14.50;;;;;;;16.98;79.13;98630.77;435773;1255;139714;-62
2023/09/19 03:46:35;;;;;;;14.60;13.10;;;;;;;16.94;79.27;98622.29;437238;1254;139399;-62
2023/09/19 03:56:42;;;;;;;15.30;13.80;;;;;;;16.93;79.48;98617.52;437028;1253;139556;-62
2023/09/19 04:06:48;;;;;;;17.10;13.40;;;;;;;16.90;79.69;98611.21;436167;1253;139567;-61
2023/09/19 04:16:54;;;;;;;15.40;13.70;;;;;;;16.90;79.81;98616.09;435816;1255;139840;-61
2023/09/19 04:27:00;;;;;;;13.80;12.10;;;;;;;16.91;79.92;98622.35;436120;1251;139762;-61
2023/09/19 04:37:06;;;;;;;17.80;14.80;;;;;;;16.84;80.34;98622.46;435849;1256;139525;-62
2023/09/19 04:47:12;;;;;;;21.00;14.80;;;;;;;16.90;81.03;98635.86;435518;1251;139464;-61
2023/09/19 04:57:18;;;;;;;18.20;13.80;;;;;;;17.02;81.33;98640.95;435661;1256;139452;-61
2023/09/19 05:07:25;;;;;;;24.10;16.30;;;;;;;17.16;81.49;98643.10;436132;1254;140234;-62
2023/09/19 05:17:32;;;;;;;17.80;14.60;;;;;;;17.25;81.42;98653.30;436035;1251;139969;-62
2023/09/19 05:27:38;;;;;;;17.60;14.20;;;;;;;17.28;81.44;98656.02;436029;1251;140879;-60
2023/09/19 05:37:44;;;;;;;21.60;14.20;;;;;;;17.36;81.39;98652.42;435712;1256;139790;-61
2023/09/19 05:47:50;;;;;;;20.10;13.70;;;;;;;17.55;81.39;98658.50;435517;1255;139833;-62
2023/09/19 05:57:57;;;;;;;16.80;13.50;;;;;;;17.62;83.18;98680.27;435718;1255;139396;-68
2023/09/19 06:08:07;;;;;;;15.70;12.10;;;;;;;17.54;86.60;98684.61;435556;1251;141001;-67
2023/09/19 06:18:19;;;;;;;13.10;11.80;;;;;;;17.41;88.49;98690.98;435422;1251;139398;-61
2023/09/19 06:28:28;;;;;;;10.20;9.10;;;;;;;17.32;90.03;98694.79;435832;1253;140559;-64
2023/09/19 06:38:36;;;;;;;11.10;8.70;;;;;;;17.28;90.86;98696.27;436419;1255;139239;-65
2023/09/19 06:48:43;;;;;;;11.70;8.40;;;;;;;17.25;91.97;98714.07;435511;1255;139203;-69
2023/09/19 06:58:49;;;;;;;8.30;7.40;;;;;;;17.27;93.15;98720.64;435573;1254;140354;-65
2023/09/19 07:08:55;;;;;;;9.20;8.30;;;;;;;17.30;93.94;98744.48;435948;1251;139042;-69
2023/09/19 07:19:01;;;;;;;9.10;7.50;;;;;;;17.42;94.80;98755.33;435123;1255;155817;-68
2023/09/19 07:29:08;;;;;;;9.00;7.60;;;;;;;17.54;95.20;98770.27;436593;1251;139452;-71
2023/09/19 07:39:14;;;;;;;10.40;8.50;;;;;;;17.62;95.80;98777.98;436042;1251;138941;-65
2023/09/19 07:49:28;;;;;;;11.30;8.80;;;;;;;17.84;96.50;98792.58;435603;1256;139948;-65
2023/09/19 07:59:34;;;;;;;8.20;6.60;;;;;;;18.11;96.66;98796.14;435625;1253;139065;-65
2023/09/19 08:09:40;;;;;;;5.50;4.20;;;;;;;18.30;96.64;98797.66;435498;1255;139081;-65
2023/09/19 08:19:49;;;;;;;3.80;3.50;;;;;;;18.63;96.65;98800.42;435466;1256;139082;-65
2023/09/19 08:29:55;;;;;;;5.20;4.20;;;;;;;18.85;96.06;98806.38;435559;1254;140277;-66
2023/09/19 08:40:00;;;;;;;4.70;4.00;;;;;;;19.30;96.20;98815.58;435807;1256;140296;-66
2023/09/19 08:50:16;;;;;;;5.90;4.20;;;;;;;19.79;95.39;98800.23;435938;1251;139437;-66
2023/09/19 09:00:25;;;;;;;4.30;3.80;;;;;;;20.43;94.45;98792.17;435577;1255;139802;-65
2023/09/19 09:10:31;;;;;;;4.80;4.30;;;;;;;20.99;92.43;98793.73;435640;1251;139138;-66
2023/09/19 09:20:37;;;;;;;6.20;4.70;;;;;;;21.12;89.79;98795.44;436486;1255;139083;-66
2023/09/19 09:30:43;;;;;;;7.00;6.20;;;;;;;21.03;89.17;98800.26;436141;1254;139837;-70
2023/09/19 09:40:58;;;;;;;6.00;5.30;;;;;;;21.15;88.57;98804.11;435894;1254;140114;-65
2023/09/19 09:51:07;;;;;;;7.20;6.50;;;;;;;21.60;87.74;98809.71;438173;1253;138975;-62
2023/09/19 10:01:15;;;;;;;;;;;;;;;21.96;86.21;98819.11;436574;1251;139355;-63
2023/09/19 10:11:30;;;;;;;10.70;5.50;;;;;;;22.35;84.91;98831.20;435800;1255;125580;-63
2023/09/19 10:21:37;;;;;;;5.00;4.60;;;;;;;22.52;83.30;98845.84;436599;1253;139682;-61
2023/09/19 10:31:47;;;;;;;7.80;5.20;;;;;;;22.41;81.48;98863.92;436045;1254;139327;-61
2023/09/19 10:41:58;;;;;;;5.20;4.70;;;;;;;22.08;81.25;98877.27;436288;1255;138904;-62
2023/09/19 10:52:12;;;;;;;6.50;5.80;;;;;;;21.92;80.95;98887.66;437214;1254;139903;-62
2023/09/19 11:02:21;;;;;;;5.20;4.80;;;;;;;22.03;81.08;98889.29;436394;1254;139449;-63
2023/09/19 11:12:50;;;;;;;6.20;5.60;;;;;;;21.69;79.97;98899.06;435851;1251;139260;-61
2023/09/19 11:23:27;;;;;;;9.30;5.50;;;;;;;21.42;80.52;98905.71;435586;1255;139157;-61
2023/09/19 11:33:36;;;;;;;7.00;4.60;;;;;;;21.01;80.34;98916.13;435626;1256;140264;-61
2023/09/19 11:43:43;;;;;;;5.90;5.00;;;;;;;20.86;80.36;98918.04;435850;1252;139418;-61
2023/09/19 11:53:50;;;;;;;5.80;4.30;;;;;;;20.96;80.86;98922.70;435612;1254;140009;-62
2023/09/19 12:03:59;;;;;;;12.60;3.70;;;;;;;21.37;80.68;98920.90;435846;1254;139273;-62
2023/09/19 12:14:05;;;;;;;5.20;3.20;;;;;;;21.57;79.45;98924.04;435767;1253;139302;-62
2023/09/19 12:24:17;;;;;;;2.60;2.40;;;;;;;21.62;78.38;98931.78;435771;1254;139255;-62
2023/09/19 12:34:30;;;;;;;2.70;2.40;;;;;;;21.26;77.54;98938.65;435231;1255;140227;-62
2023/09/19 12:44:37;;;;;;;2.00;1.70;;;;;;;20.90;77.82;98946.83;438890;1255;140282;-62
2023/09/19 12:54:45;;;;;;;3.40;1.90;;;;;;;20.86;77.64;98951.52;435708;1254;141031;-62
2023/09/19 13:05:00;;;;;;;11.80;5.60;;;;;;;21.35;77.10;98953.93;435287;1251;139151;-62
2023/09/19 13:15:15;;;;;;;7.10;2.40;;;;;;;21.87;75.40;98955.20;435494;1255;139384;-62
2023/09/19 13:25:22;;;;;;;6.00;1.80;;;;;;;22.36;73.89;98954.11;436266;1251;139027;-62
2023/09/19 13:35:28;;;;;;;3.40;1.40;;;;;;;22.85;71.91;98960.45;436144;1251;138816;-66
2023/09/19 13:45:34;;;;;;;4.70;1.90;;;;;;;23.13;70.04;98955.95;435770;1255;139598;-64
2023/09/19 13:55:40;;;;;;;2.70;1.50;;;;;;;23.11;67.83;98950.29;435778;1256;139489;-66
2023/09/19 14:05:46;;;;;;;2.00;1.10;;;;;;;22.82;66.02;98956.84;436189;1256;138837;-66
2023/09/19 14:15:52;;;;;;;4.90;2.20;;;;;;;22.57;65.21;98957.80;436325;1256;138961;-71
2023/09/19 14:26:01;;;;;;;2.60;1.30;;;;;;;22.53;65.25;98948.08;436495;1254;139053;-64
2023/09/19 14:36:09;;;;;;;3.30;1.20;;;;;;;22.31;63.37;98951.09;435679;1252;138351;-64
2023/09/19 14:46:15;;;;;;;5.10;1.20;;;;;;;22.00;62.20;98956.69;435937;1256;138531;-64
2023/09/19 14:56:23;;;;;;;1.50;0.90;;;;;;;21.82;61.29;98968.08;435831;1256;138747;-64
2023/09/19 15:06:30;;;;;;;1.20;1.10;;;;;;;21.73;60.79;98971.14;436605;1254;138542;-64
2023/09/19 15:16:36;;;;;;;2.20;1.00;;;;;;;21.61;60.72;98979.30;435743;1256;139760;-63
2023/09/19 15:26:43;;;;;;;3.50;2.00;;;;;;;21.50;60.91;98987.25;436029;1256;138655;-64
2023/09/19 15:36:49;;;;;;;1.40;0.90;;;;;;;21.29;60.72;98995.25;435738;1256;140086;-65
2023/09/19 15:46:55;;;;;;;2.20;1.80;;;;;;;20.99;60.34;98998.33;436578;1256;138943;-63
2023/09/19 15:57:02;;;;;;;3.80;1.60;;;;;;;20.71;60.67;99009.79;435599;1255;138644;-65
2023/09/19 16:07:07;;;;;;;1.00;1.00;;;;;;;20.39;61.10;99016.27;435900;1256;138215;-66
2023/09/19 16:17:13;;;;;;;4.10;2.00;;;;;;;19.97;62.09;99027.02;435784;1255;139496;-66
2023/09/19 16:27:21;;;;;;;2.90;1.00;;;;;;;19.39;63.29;99035.19;435958;1251;138280;-66
2023/09/19 16:37:26;;;;;;;1.50;1.00;;;;;;;18.73;64.56;99042.17;436498;1256;138864;-66
2023/09/19 16:47:32;;;;;;;2.50;1.70;;;;;;;18.18;65.98;99051.69;436185;1251;138943;-65
2023/09/19 16:57:38;;;;;;;3.00;1.40;;;;;;;17.69;67.38;99067.31;436194;1255;139644;-66
2023/09/19 17:07:45;;;;;;;6.20;3.00;;;;;;;17.26;68.99;99078.72;436010;1256;141339;-65
2023/09/19 17:17:51;;;;;;;4.30;2.10;;;;;;;16.98;70.37;99079.30;435544;1256;140530;-65
2023/09/19 17:27:58;;;;;;;2.50;2.30;;;;;;;16.59;71.45;99092.91;436197;1256;139812;-65
2023/09/19 17:38:04;;;;;;;9.70;3.80;;;;;;;16.24;72.94;99099.80;435931;1253;139300;-65
2023/09/19 17:48:10;;;;;;;6.20;3.20;;;;;;;15.96;74.54;99107.59;435518;1257;139318;-65
2023/09/19 17:58:16;;;;;;;8.10;2.80;;;;;;;15.82;76.24;99122.27;435940;1256;139281;-66
2023/09/19 18:08:22;;;;;;;5.50;3.10;;;;;;;15.66;77.54;99134.13;436025;1255;139439;-66
2023/09/19 18:18:28;;;;;;;4.20;3.30;;;;;;;15.42;78.40;99138.63;436243;1251;139089;-65
2023/09/19 18:28:35;;;;;;;6.60;4.10;;;;;;;15.10;79.34;99151.90;435905;1257;139058;-64
2023/09/19 18:38:43;;;;;;;7.50;6.30;;;;;;;14.81;80.11;99162.08;435720;1257;139251;-65
2023/09/19 18:48:52;;;;;;;16.70;13.30;;;;;;;14.56;80.97;99163.16;436663;1251;140364;-64
2023/09/19 18:58:58;;;;;;;19.70;14.30;;;;;;;14.31;81.75;99167.70;436958;1255;139722;-65
2023/09/19 19:09:05;;;;;;;20.60;12.50;;;;;;;14.08;82.58;99170.34;435949;1251;140991;-64
2023/09/19 19:19:13;;;;;;;10.80;8.90;;;;;;;13.82;83.02;99176.59;435810;1256;192108;-66
2023/09/19 19:29:20;;;;;;;13.50;7.20;;;;;;;13.57;84.01;99182.90;437931;1251;139245;-65
2023/09/19 19:39:27;;;;;;;11.20;7.20;;;;;;;13.38;85.00;99186.36;436237;1251;139204;-66
2023/09/19 19:49:34;;;;;;;9.30;5.90;;;;;;;13.20;85.84;99183.24;436208;1255;140105;-65
2023/09/19 19:59:39;;;;;;;5.70;4.80;;;;;;;13.03;86.18;99185.66;435850;1251;140644;-64
2023/09/19 20:09:45;;;;;;;10.10;6.10;;;;;;;12.93;86.83;99188.39;435742;1254;139882;-65
2023/09/19 20:19:52;;;;;;;9.70;5.30;;;;;;;12.84;87.54;99197.00;435940;1251;140132;-65
2023/09/19 20:29:58;;;;;;;8.60;7.00;;;;;;;12.73;87.73;99206.46;435915;1256;139567;-65
2023/09/19 20:40:05;;;;;;;8.20;6.60;;;;;;;12.70;88.54;99212.20;435844;1251;139514;-65
2023/09/19 20:50:12;;;;;;;11.60;7.50;;;;;;;12.73;89.24;99219.77;435792;1256;140163;-65
2023/09/19 21:00:20;;;;;;;10.50;7.20;;;;;;;12.78;89.74;99225.63;435917;1254;193537;-65
2023/09/19 21:10:26;;;;;;;8.40;7.60;;;;;;;12.77;90.06;99237.65;436195;1251;139864;-64
2023/09/19 21:20:34;;;;;;;7.70;6.80;;;;;;;12.64;89.93;99243.14;435753;1251;139122;-64
2023/09/19 21:30:40;;;;;;;11.50;7.00;;;;;;;12.47;90.04;99251.88;435895;1251;139217;-64
2023/09/19 21:40:47;;;;;;;10.00;8.20;;;;;;;12.44;90.93;99257.02;435605;1251;140335;-63
2023/09/19 21:50:56;;;;;;;10.10;7.20;;;;;;;12.44;91.34;99257.69;435785;1256;140362;-65
2023/09/19 22:01:06;;;;;;;12.30;7.90;;;;;;;12.30;91.52;99254.59;435754;1256;139182;-64
2023/09/19 22:11:15;;;;;;;13.70;8.20;;;;;;;12.08;91.59;99249.71;436316;1255;139917;-63
2023/09/19 22:21:26;;;;;;;7.70;6.40;;;;;;;11.89;92.01;99252.70;436122;1254;139948;-63
2023/09/19 22:31:38;;;;;;;9.40;7.00;;;;;;;11.72;92.60;99252.17;436084;1251;140000;-64
2023/09/19 22:41:45;;;;;;;6.40;5.80;;;;;;;11.63;92.95;99253.39;435984;1251;140547;-64
2023/09/19 22:51:51;;;;;;;11.30;8.20;;;;;;;11.53;93.05;99245.48;436302;1253;140168;-64
2023/09/19 23:01:59;;;;;;;7.50;5.60;;;;;;;11.53;93.81;99247.62;435884;1251;141654;-64
2023/09/19 23:12:10;;;;;;;6.70;5.50;;;;;;;11.44;93.78;99247.55;436000;1255;139713;-65
2023/09/19 23:22:23;;;;;;;10.50;7.40;;;;;;;11.36;93.98;99255.70;436204;1255;139404;-66
2023/09/19 23:32:29;;;;;;;6.60;5.90;;;;;;;11.28;94.30;99253.80;435954;1253;140838;-65
2023/09/19 23:42:35;;;;;;;6.80;5.80;;;;;;;11.17;94.13;99259.65;436195;1251;139943;-66
2023/09/19 23:52:42;;;;;;;7.50;6.30;;;;;;;11.09;94.24;99263.73;436010;1251;140315;-66
